To NAV CANADA Home Page Login to a new session Search on AWWS site Feedback and Comments Disclaimer Vers la page française équivalente Tips FAQ What's new on the site To the Forecasts and Observations / NOTAM section To "File a Flight Plan" website Publications and other links Update of the User's profile FIC Telephone Numbers My Weather Data Folder Route Weather Data Regional Weather Data Local Weather Data To the Forecasts and Observations / NOTAM section
Request Generated 01/21/2017 at 02:05:18 UTC . Weather information available at that time is displayed.

METAR/TAF

FORT ST. JOHN/BC    

SPECI CYXJ 210119Z 35017G24KT 15SM -SN OVC060 M11/M14 A2932 RMK SC8
SLP970=
METAR CYXJ 210100Z 35018G25KT 15SM OVC060 M11/M14 A2931 RMK SC8
SLP966=
METAR CYXJ 210000Z 35017G22KT 15SM BKN053 BKN100 M11/M13 A2929 RMK
SC5AC2 SLP960=
METAR CYXJ 202300Z 35016G23KT 15SM BKN095 M09/M12 A2926 RMK AC6
SLP945=

TAF CYXJ 210038Z 2101/2113 35018KT P6SM BKN080
BECMG 2101/2102 5SM -SN OVC020
FM210200 34018KT 2SM -SN OVC015 TEMPO 2102/2108 P6SM -SN SCT015
OVC030 PROB40 2102/2108 1SM -SHSN VV008
FM210800 34012KT 4SM -SN BKN020
FM211200 34012KT P6SM -SN BKN025
RMK NXT FCST BY 210700Z=
Your time UTC time
Weather data provided by Environment Canada and NAV CANADA